createdAt,value
2017-07-24T00:00:12.441Z,94.21
2017-07-24T00:01:13.144Z,94.12
2017-07-24T00:02:13.846Z,93.63
2017-07-24T00:03:14.547Z,93.73
2017-07-24T00:04:15.250Z,93.44
2017-07-24T00:05:15.950Z,93.82
2017-07-24T00:06:16.650Z,93.92
2017-07-24T00:07:17.351Z,93.88
2017-07-24T00:08:18.050Z,94.45
2017-07-24T00:09:18.749Z,94.35
2017-07-24T00:10:19.699Z,94.35
2017-07-24T00:11:20.400Z,94.74
2017-07-24T00:12:21.104Z,94.45
2017-07-24T00:13:21.805Z,94.07
2017-07-24T00:14:22.507Z,94.45
2017-07-24T00:15:23.457Z,94.45
2017-07-24T00:16:24.156Z,95.03
2017-07-24T00:17:24.855Z,95.21
2017-07-24T00:18:25.562Z,96.75
2017-07-24T00:19:26.272Z,96.27
2017-07-24T00:20:27.221Z,97.33
2017-07-24T00:21:27.923Z,97.28
2017-07-24T00:22:28.621Z,98.05
2017-07-24T00:23:29.324Z,98.14
2017-07-24T00:24:30.023Z,98.52
2017-07-24T00:25:30.970Z,98.14
2017-07-24T00:26:31.668Z,99.01
2017-07-24T00:27:32.370Z,98.91
2017-07-24T00:28:33.073Z,99.19
2017-07-24T00:29:33.770Z,99.01
2017-07-24T00:30:34.719Z,99.19
2017-07-24T00:31:35.418Z,98.62
2017-07-24T00:32:36.118Z,99.19
2017-07-24T00:33:36.821Z,98.72
2017-07-24T00:34:37.522Z,99.01
2017-07-24T00:35:38.468Z,98.86
2017-07-24T00:36:39.167Z,98.96
2017-07-24T00:37:39.870Z,98.96
2017-07-24T00:38:40.570Z,99.19
2017-07-24T00:39:41.272Z,99.05
2017-07-24T00:40:42.225Z,98.96
2017-07-24T00:41:42.921Z,98.86
2017-07-24T00:42:43.620Z,99.29
2017-07-24T00:43:44.325Z,99.05
2017-07-24T00:44:45.026Z,99.43
2017-07-24T00:45:45.976Z,98.96
2017-07-24T00:46:46.674Z,99.10
2017-07-24T00:47:47.381Z,99.15
2017-07-24T00:48:48.080Z,99.43
2017-07-24T00:49:48.782Z,99.82
2017-07-24T00:50:49.732Z,99.99
2017-07-24T00:51:50.429Z,99.99
2017-07-24T00:52:51.128Z,99.99
2017-07-24T00:53:51.829Z,99.99
2017-07-24T00:54:52.525Z,99.99
2017-07-24T00:55:53.481Z,99.82
2017-07-24T00:56:54.183Z,99.99
2017-07-24T00:57:54.888Z,99.99
2017-07-24T00:58:55.588Z,99.99
2017-07-24T00:59:56.284Z,99.99
2017-07-24T01:00:57.234Z,99.99
2017-07-24T01:01:57.932Z,99.99
2017-07-24T01:02:58.636Z,99.99
2017-07-24T01:03:59.346Z,99.99
2017-07-24T01:05:00.043Z,99.99
2017-07-24T01:06:00.997Z,99.99
2017-07-24T01:07:01.694Z,99.99
2017-07-24T01:08:02.393Z,99.99
2017-07-24T01:09:03.096Z,99.99
2017-07-24T01:10:03.799Z,99.99
2017-07-24T01:11:04.751Z,99.99
2017-07-24T01:12:05.459Z,99.99
2017-07-24T01:13:06.165Z,99.99
2017-07-24T01:14:06.869Z,99.99
2017-07-24T01:15:07.573Z,99.99
2017-07-24T01:16:08.524Z,99.99
2017-07-24T01:17:09.226Z,99.99
2017-07-24T01:18:09.928Z,99.99
2017-07-24T01:19:10.627Z,99.99
2017-07-24T01:20:11.327Z,99.99
2017-07-24T01:21:12.280Z,99.99
2017-07-24T01:22:12.981Z,99.99
2017-07-24T01:23:13.684Z,99.99
2017-07-24T01:24:14.394Z,99.99
2017-07-24T01:25:15.096Z,99.99
2017-07-24T01:26:16.047Z,99.99
2017-07-24T01:27:16.749Z,99.99
2017-07-24T01:28:17.447Z,99.99
2017-07-24T01:29:18.145Z,99.99
2017-07-24T01:30:18.847Z,99.99
2017-07-24T01:31:19.797Z,99.99
2017-07-24T01:32:20.499Z,99.99
2017-07-24T01:33:21.194Z,99.99
2017-07-24T01:34:21.894Z,99.99
2017-07-24T01:35:22.595Z,99.99
2017-07-24T01:36:23.314Z,99.99
2017-07-24T01:37:24.020Z,99.99
2017-07-24T01:38:24.719Z,99.99
2017-07-24T01:39:25.418Z,99.99
2017-07-24T01:40:26.121Z,99.99
2017-07-24T01:41:27.070Z,99.99
2017-07-24T01:42:27.777Z,99.99
2017-07-24T01:43:28.479Z,99.99
2017-07-24T01:44:29.180Z,99.99
2017-07-24T01:45:29.883Z,99.99
2017-07-24T01:46:30.836Z,99.99
2017-07-24T01:47:31.531Z,99.99
2017-07-24T01:48:32.228Z,99.99
2017-07-24T01:49:32.940Z,99.99
2017-07-24T01:50:33.645Z,99.99
2017-07-24T01:51:34.597Z,99.99
2017-07-24T01:52:35.295Z,99.99
2017-07-24T01:53:35.993Z,99.99
2017-07-24T01:54:36.693Z,99.99
2017-07-24T01:55:37.395Z,99.99
2017-07-24T01:56:38.345Z,99.99
2017-07-24T01:57:39.055Z,99.99
2017-07-24T01:58:39.758Z,99.99
2017-07-24T01:59:40.463Z,99.99
2017-07-24T02:00:41.164Z,99.99
2017-07-24T02:01:41.862Z,99.99
2017-07-24T02:02:42.564Z,99.99
2017-07-24T02:03:43.262Z,99.99
2017-07-24T02:04:43.960Z,99.99
2017-07-24T02:05:44.659Z,99.99
2017-07-24T02:06:45.608Z,99.99
2017-07-24T02:07:46.307Z,99.99
2017-07-24T02:08:47.007Z,99.99
2017-07-24T02:09:47.708Z,99.99
2017-07-24T02:10:48.413Z,99.99
2017-07-24T02:11:49.364Z,99.99
2017-07-24T02:12:50.063Z,99.99
2017-07-24T02:13:50.764Z,99.99
2017-07-24T02:14:51.465Z,99.99
2017-07-24T02:15:52.165Z,99.99
2017-07-24T02:16:53.115Z,99.99
2017-07-24T02:17:53.815Z,99.99
2017-07-24T02:18:54.517Z,99.99
2017-07-24T02:19:55.217Z,99.99
2017-07-24T02:20:55.914Z,99.99
2017-07-24T02:21:56.863Z,99.99
2017-07-24T02:22:57.562Z,99.99
2017-07-24T02:23:58.264Z,99.99
2017-07-24T02:24:58.962Z,99.99
2017-07-24T02:25:59.660Z,99.99
2017-07-24T02:27:00.609Z,99.99
2017-07-24T02:28:01.307Z,99.99
2017-07-24T02:29:02.008Z,99.99
2017-07-24T02:30:02.712Z,99.99
2017-07-24T02:31:03.417Z,99.99
2017-07-24T02:32:04.369Z,99.99
2017-07-24T02:33:05.072Z,99.99
2017-07-24T02:34:05.774Z,99.99
2017-07-24T02:35:06.472Z,99.99
2017-07-24T02:36:07.181Z,99.99
2017-07-24T02:37:08.133Z,99.99
2017-07-24T02:38:08.834Z,99.99
2017-07-24T02:39:09.533Z,99.99
2017-07-24T02:40:10.232Z,99.99
2017-07-24T02:41:10.929Z,99.99
2017-07-24T02:42:11.881Z,99.99
2017-07-24T02:43:12.583Z,99.99
2017-07-24T02:44:13.285Z,99.99
2017-07-24T02:45:13.984Z,99.99
2017-07-24T02:46:14.691Z,99.99
2017-07-24T02:47:15.641Z,99.99
2017-07-24T02:48:16.341Z,99.99
2017-07-24T02:49:17.041Z,99.99
2017-07-24T02:50:17.738Z,99.99
2017-07-24T02:51:18.439Z,99.99
2017-07-24T02:52:19.396Z,99.99
2017-07-24T02:53:20.101Z,99.99
2017-07-24T02:54:20.804Z,99.99
2017-07-24T02:55:21.505Z,99.99
2017-07-24T02:56:22.204Z,99.99
2017-07-24T02:57:22.900Z,99.99
2017-07-24T02:58:23.594Z,99.99
2017-07-24T02:59:24.291Z,99.99
2017-07-24T03:00:24.993Z,99.99
2017-07-24T03:01:25.696Z,99.99
2017-07-24T03:02:26.652Z,99.99
2017-07-24T03:03:27.360Z,99.99
2017-07-24T03:04:28.060Z,99.99
2017-07-24T03:05:28.766Z,99.99
2017-07-24T03:06:29.461Z,99.99
2017-07-24T03:07:30.159Z,99.99
2017-07-24T03:08:30.860Z,99.99
2017-07-24T03:09:31.561Z,99.99
2017-07-24T03:10:32.259Z,99.99
2017-07-24T03:11:32.961Z,99.99
2017-07-24T03:12:33.921Z,99.99
2017-07-24T03:13:34.621Z,99.99
2017-07-24T03:14:35.327Z,99.99
2017-07-24T03:15:36.026Z,99.99
2017-07-24T03:16:36.722Z,99.99
2017-07-24T03:17:37.665Z,99.99
2017-07-24T03:18:38.372Z,99.99
2017-07-24T03:19:39.070Z,99.99
2017-07-24T03:20:39.770Z,99.99
2017-07-24T03:21:40.471Z,99.99
2017-07-24T03:22:41.422Z,99.99
2017-07-24T03:23:42.125Z,99.99
2017-07-24T03:24:42.826Z,99.99
2017-07-24T03:25:43.529Z,99.99
2017-07-24T03:26:44.229Z,99.99
2017-07-24T03:27:45.185Z,99.99
2017-07-24T03:28:45.885Z,99.99
2017-07-24T03:29:46.587Z,99.99
2017-07-24T03:30:47.293Z,99.99
2017-07-24T03:31:47.996Z,99.99
2017-07-24T03:32:48.744Z,99.99
2017-07-24T03:33:49.443Z,99.99
2017-07-24T03:34:50.146Z,99.99
2017-07-24T03:35:50.853Z,99.99
2017-07-24T03:36:51.553Z,99.99
2017-07-24T03:37:52.511Z,99.99
2017-07-24T03:38:53.213Z,99.99
2017-07-24T03:39:53.916Z,99.99
2017-07-24T03:40:54.617Z,99.99
2017-07-24T03:41:55.317Z,99.99
2017-07-24T03:42:56.265Z,99.99
2017-07-24T03:43:56.968Z,99.99
2017-07-24T03:44:57.672Z,99.99
2017-07-24T03:45:58.375Z,99.99
2017-07-24T03:46:59.073Z,99.99
2017-07-24T03:48:00.023Z,99.99
2017-07-24T03:49:00.725Z,99.99
2017-07-24T03:50:01.427Z,99.99
2017-07-24T03:51:02.128Z,99.87
2017-07-24T03:52:02.837Z,99.99
2017-07-24T03:53:03.789Z,99.99
2017-07-24T03:54:04.488Z,99.87
2017-07-24T03:55:05.190Z,99.99
2017-07-24T03:56:05.892Z,99.99
2017-07-24T03:57:06.594Z,99.99
2017-07-24T03:58:07.560Z,99.99
2017-07-24T03:59:08.264Z,99.99
2017-07-24T04:00:08.965Z,99.99
2017-07-24T04:01:09.666Z,99.99
2017-07-24T04:02:10.368Z,99.99
2017-07-24T04:03:11.319Z,99.99
2017-07-24T04:04:12.020Z,99.99
2017-07-24T04:05:12.723Z,99.99
2017-07-24T04:06:13.426Z,99.99
2017-07-24T04:07:14.128Z,99.99
2017-07-24T04:08:14.832Z,99.99
2017-07-24T04:09:15.541Z,99.99
2017-07-24T04:10:16.243Z,99.99
2017-07-24T04:11:16.944Z,99.99
2017-07-24T04:12:17.646Z,99.99
2017-07-24T04:13:18.359Z,99.99
2017-07-24T04:14:19.071Z,99.99
2017-07-24T04:15:19.773Z,99.99
2017-07-24T04:16:20.472Z,99.99
2017-07-24T04:17:21.175Z,99.99
2017-07-24T04:18:22.133Z,99.99
2017-07-24T04:19:22.838Z,99.99
2017-07-24T04:20:23.540Z,99.99
2017-07-24T04:21:24.244Z,99.99
2017-07-24T04:22:24.943Z,99.99
2017-07-24T04:23:25.896Z,99.99
2017-07-24T04:24:26.597Z,99.99
2017-07-24T04:25:27.301Z,99.99
2017-07-24T04:26:28.002Z,99.99
2017-07-24T04:27:28.704Z,99.99
2017-07-24T04:28:29.657Z,99.99
2017-07-24T04:29:30.361Z,99.99
2017-07-24T04:30:31.063Z,99.99
2017-07-24T04:31:31.764Z,99.99
2017-07-24T04:32:32.462Z,99.99
2017-07-24T04:33:33.416Z,99.99
2017-07-24T04:34:34.123Z,99.99
2017-07-24T04:35:34.825Z,99.99
2017-07-24T04:36:35.528Z,99.99
2017-07-24T04:37:36.236Z,99.99
2017-07-24T04:38:36.945Z,99.87
2017-07-24T04:39:37.649Z,99.82
2017-07-24T04:40:38.352Z,99.05
2017-07-24T04:41:39.054Z,98.77
2017-07-24T04:42:39.763Z,98.57
2017-07-24T04:43:40.719Z,98.48
2017-07-24T04:44:41.426Z,98.28
2017-07-24T04:45:42.134Z,98.67
2017-07-24T04:46:42.839Z,98.67
2017-07-24T04:47:43.540Z,99.05
2017-07-24T04:48:44.490Z,98.67
2017-07-24T04:49:45.195Z,99.15
2017-07-24T04:50:45.896Z,98.72
2017-07-24T04:51:46.609Z,99.05
2017-07-24T04:52:47.310Z,98.96
2017-07-24T04:53:48.265Z,99.58
2017-07-24T04:54:48.971Z,99.53
2017-07-24T04:55:49.671Z,99.77
2017-07-24T04:56:50.373Z,99.91
2017-07-24T04:57:51.073Z,99.44
2017-07-24T04:58:52.021Z,99.99
2017-07-24T04:59:52.721Z,99.73
2017-07-24T05:00:53.428Z,99.99
2017-07-24T05:01:54.134Z,99.99
2017-07-24T05:02:54.848Z,99.99
2017-07-24T05:03:55.801Z,99.99
2017-07-24T05:04:56.504Z,99.99
2017-07-24T05:05:57.220Z,99.99
2017-07-24T05:06:57.921Z,99.99
2017-07-24T05:07:58.625Z,99.99
2017-07-24T05:08:59.576Z,99.99
2017-07-24T05:10:00.277Z,99.77
2017-07-24T05:11:00.980Z,99.87
2017-07-24T05:12:01.680Z,99.99
2017-07-24T05:13:02.385Z,99.77
2017-07-24T05:14:03.341Z,99.96
2017-07-24T05:15:04.043Z,99.63
2017-07-24T05:16:04.746Z,99.34
2017-07-24T05:17:05.455Z,99.34
2017-07-24T05:18:06.159Z,99.73
2017-07-24T05:19:06.868Z,99.25
2017-07-24T05:20:07.573Z,99.15
2017-07-24T05:21:08.283Z,99.44
2017-07-24T05:22:08.985Z,98.67
2017-07-24T05:23:09.688Z,98.48
2017-07-24T05:24:10.655Z,98.58
2017-07-24T05:25:11.362Z,98.77
2017-07-24T05:26:12.069Z,98.86
2017-07-24T05:27:12.775Z,99.34
2017-07-24T05:28:13.480Z,99.54
2017-07-24T05:29:14.433Z,99.54
2017-07-24T05:30:15.137Z,99.34
2017-07-24T05:31:15.842Z,99.34
2017-07-24T05:32:16.547Z,99.05
2017-07-24T05:33:17.254Z,99.15
2017-07-24T05:34:18.210Z,99.99
2017-07-24T05:35:18.922Z,99.99
2017-07-24T05:36:19.633Z,99.99
2017-07-24T05:37:20.337Z,99.99
2017-07-24T05:38:21.041Z,99.73
2017-07-24T05:39:21.998Z,99.82
2017-07-24T05:40:22.710Z,99.63
2017-07-24T05:41:23.413Z,99.99
2017-07-24T05:42:24.116Z,99.99
2017-07-24T05:43:24.819Z,99.82
2017-07-24T05:44:25.774Z,99.54
2017-07-24T05:45:26.482Z,99.49
2017-07-24T05:46:27.183Z,99.49
2017-07-24T05:47:27.893Z,98.82
2017-07-24T05:48:28.594Z,98.63
2017-07-24T05:49:29.547Z,97.86
2017-07-24T05:50:30.248Z,97.57
2017-07-24T05:51:30.949Z,97.19
2017-07-24T05:52:31.654Z,97.09
2017-07-24T05:53:32.358Z,97.81
2017-07-24T05:54:33.310Z,96.94
2017-07-24T05:55:34.017Z,96.94
2017-07-24T05:56:34.724Z,96.66
2017-07-24T05:57:35.433Z,96.13
2017-07-24T05:58:36.138Z,96.13
2017-07-24T05:59:37.090Z,96.61
2017-07-24T06:00:37.798Z,96.03
2017-07-24T06:01:38.501Z,95.75
2017-07-24T06:02:39.206Z,96.22
2017-07-24T06:03:39.913Z,95.17
2017-07-24T06:04:40.869Z,94.49
2017-07-24T06:05:41.570Z,95.26
2017-07-24T06:06:42.277Z,95.07
2017-07-24T06:07:42.984Z,95.26
2017-07-24T06:08:43.693Z,94.98
2017-07-24T06:09:44.399Z,94.78
2017-07-24T06:10:45.108Z,95.94
2017-07-24T06:11:45.820Z,95.75
2017-07-24T06:12:46.533Z,95.55
2017-07-24T06:13:47.242Z,95.17
2017-07-24T06:14:48.196Z,95.45
2017-07-24T06:15:48.898Z,95.75
2017-07-24T06:16:49.599Z,95.55
2017-07-24T06:17:50.306Z,95.84
2017-07-24T06:18:51.013Z,96.03
2017-07-24T06:19:51.967Z,95.55
2017-07-24T06:20:52.678Z,95.94
2017-07-24T06:21:53.386Z,95.65
2017-07-24T06:22:54.092Z,95.40
2017-07-24T06:23:54.794Z,95.02
2017-07-24T06:24:55.753Z,95.94
2017-07-24T06:25:56.456Z,96.80
2017-07-24T06:26:57.166Z,96.70
2017-07-24T06:27:57.880Z,96.32
2017-07-24T06:28:58.580Z,95.89
2017-07-24T06:29:59.280Z,95.98
2017-07-24T06:30:59.983Z,96.03
2017-07-24T06:32:00.684Z,96.70
2017-07-24T06:33:01.388Z,96.22
2017-07-24T06:34:02.089Z,95.79
2017-07-24T06:35:02.798Z,95.50
2017-07-24T06:36:03.497Z,95.31
2017-07-24T06:37:04.201Z,95.70
2017-07-24T06:38:04.918Z,95.70
2017-07-24T06:39:05.622Z,96.08
2017-07-24T06:40:06.576Z,96.13
2017-07-24T06:41:07.284Z,96.22
2017-07-24T06:42:07.990Z,96.27
2017-07-24T06:43:08.696Z,95.89
2017-07-24T06:44:09.400Z,95.36
2017-07-24T06:45:10.357Z,96.22
2017-07-24T06:46:11.063Z,96.61
2017-07-24T06:47:11.774Z,96.80
2017-07-24T06:48:12.491Z,96.61
2017-07-24T06:49:13.199Z,96.99
2017-07-24T06:50:14.155Z,96.80
2017-07-24T06:51:14.860Z,96.99
2017-07-24T06:52:15.565Z,97.38
2017-07-24T06:53:16.266Z,97.38
2017-07-24T06:54:16.969Z,96.99
2017-07-24T06:55:17.922Z,96.61
2017-07-24T06:56:18.629Z,96.51
2017-07-24T06:57:19.335Z,96.90
2017-07-24T06:58:20.044Z,96.80
2017-07-24T06:59:20.748Z,96.99
2017-07-24T07:00:21.701Z,96.61
2017-07-24T07:01:22.403Z,96.80
2017-07-24T07:02:23.107Z,96.70
2017-07-24T07:03:23.816Z,96.90
2017-07-24T07:04:24.526Z,97.67
2017-07-24T07:05:25.492Z,97.96
2017-07-24T07:06:26.198Z,98.63
2017-07-24T07:07:26.902Z,98.34
2017-07-24T07:08:27.608Z,97.19
2017-07-24T07:09:28.309Z,97.04
2017-07-24T07:10:29.265Z,97.52
2017-07-24T07:11:29.972Z,98.77
2017-07-24T07:12:30.674Z,97.71
2017-07-24T07:13:31.382Z,97.42
2017-07-24T07:14:32.088Z,97.09
2017-07-24T07:15:33.043Z,96.89
2017-07-24T07:16:33.753Z,96.70
2017-07-24T07:17:34.463Z,95.65
2017-07-24T07:18:35.179Z,96.03
2017-07-24T07:19:35.893Z,96.03
2017-07-24T07:20:36.851Z,96.03
2017-07-24T07:21:37.561Z,95.65
2017-07-24T07:22:38.269Z,95.17
2017-07-24T07:23:38.973Z,96.80
2017-07-24T07:24:39.685Z,96.70
2017-07-24T07:25:40.645Z,96.51
2017-07-24T07:26:41.348Z,95.65
2017-07-24T07:27:42.058Z,95.65
2017-07-24T07:28:42.787Z,94.97
2017-07-24T07:29:43.498Z,94.34
2017-07-24T07:30:44.456Z,95.12
2017-07-24T07:31:45.159Z,95.17
2017-07-24T07:32:45.867Z,96.08
2017-07-24T07:33:46.572Z,95.84
2017-07-24T07:34:47.279Z,96.51
2017-07-24T07:35:47.983Z,96.89
2017-07-24T07:36:48.687Z,96.99
2017-07-24T07:37:49.395Z,98.54
2017-07-24T07:38:50.104Z,97.28
2017-07-24T07:39:50.811Z,97.47
2017-07-24T07:40:51.764Z,96.80
2017-07-24T07:41:52.468Z,97.57
2017-07-24T07:42:53.168Z,97.19
2017-07-24T07:43:53.871Z,96.32
2017-07-24T07:44:54.575Z,96.85
2017-07-24T07:45:55.536Z,96.94
2017-07-24T07:46:56.251Z,95.69
2017-07-24T07:47:56.963Z,95.12
2017-07-24T07:48:57.668Z,95.31
2017-07-24T07:49:58.380Z,95.40
2017-07-24T07:50:59.350Z,95.21
2017-07-24T07:52:00.058Z,94.73
2017-07-24T07:53:00.766Z,95.31
2017-07-24T07:54:01.470Z,95.31
2017-07-24T07:55:02.174Z,94.01
2017-07-24T07:56:03.132Z,93.62
2017-07-24T07:57:03.837Z,93.04
2017-07-24T07:58:04.543Z,92.37
2017-07-24T07:59:05.249Z,92.13
2017-07-24T08:00:05.959Z,92.41
2017-07-24T08:01:06.920Z,91.55
2017-07-24T08:02:07.624Z,90.58
2017-07-24T08:03:08.332Z,90.15
2017-07-24T08:04:09.042Z,90.48
2017-07-24T08:05:09.749Z,90.58
2017-07-24T08:06:10.460Z,89.53
2017-07-24T08:07:11.173Z,89.23
2017-07-24T08:08:11.882Z,88.60
2017-07-24T08:09:12.589Z,88.41
2017-07-24T08:10:13.296Z,89.37
2017-07-24T08:11:14.259Z,88.51
2017-07-24T08:12:14.967Z,87.98
2017-07-24T08:13:15.675Z,88.75
2017-07-24T08:14:16.378Z,89.23
2017-07-24T08:15:17.090Z,91.12
2017-07-24T08:16:18.049Z,91.60
2017-07-24T08:17:18.754Z,92.37
2017-07-24T08:18:19.460Z,91.99
2017-07-24T08:19:20.172Z,93.04
2017-07-24T08:20:20.885Z,93.29
2017-07-24T08:21:21.841Z,93.19
2017-07-24T08:22:22.547Z,93.43
2017-07-24T08:23:23.260Z,93.43
2017-07-24T08:24:23.974Z,92.76
2017-07-24T08:25:24.684Z,92.08
2017-07-24T08:26:25.641Z,91.79
2017-07-24T08:27:26.350Z,92.37
2017-07-24T08:28:27.055Z,91.41
2017-07-24T08:29:27.765Z,92.18
2017-07-24T08:30:28.472Z,91.89
2017-07-24T08:31:29.435Z,92.27
2017-07-24T08:32:30.143Z,91.41
2017-07-24T08:33:30.856Z,91.45
2017-07-24T08:34:31.563Z,90.48
2017-07-24T08:35:32.275Z,90.58
2017-07-24T08:36:33.240Z,90.68
2017-07-24T08:37:33.948Z,90.58
2017-07-24T08:38:34.663Z,91.36
2017-07-24T08:39:35.370Z,91.74
2017-07-24T08:40:36.077Z,91.69
2017-07-24T08:41:37.034Z,91.36
2017-07-24T08:42:37.737Z,91.16
2017-07-24T08:43:38.453Z,90.58
2017-07-24T08:44:39.161Z,90.88
2017-07-24T08:45:39.871Z,91.93
2017-07-24T08:46:40.578Z,91.74
2017-07-24T08:47:41.296Z,90.30
2017-07-24T08:48:42.003Z,89.91
2017-07-24T08:49:42.708Z,89.57
2017-07-24T08:50:43.415Z,88.60
2017-07-24T08:51:44.376Z,88.89
2017-07-24T08:52:45.083Z,88.79
2017-07-24T08:53:45.791Z,88.22
2017-07-24T08:54:46.497Z,88.12
2017-07-24T08:55:47.209Z,88.60
2017-07-24T08:56:47.914Z,88.41
2017-07-24T08:57:48.622Z,88.95
2017-07-24T08:58:49.327Z,88.65
2017-07-24T08:59:50.037Z,88.08
2017-07-24T09:00:50.742Z,87.88
2017-07-24T09:01:51.704Z,87.79
2017-07-24T09:02:52.417Z,87.70
2017-07-24T09:03:53.124Z,88.46
2017-07-24T09:04:53.831Z,88.56
2017-07-24T09:05:54.540Z,88.75
2017-07-24T09:06:55.500Z,88.56
2017-07-24T09:07:56.205Z,89.43
2017-07-24T09:08:56.913Z,89.53
2017-07-24T09:09:57.628Z,89.23
2017-07-24T09:10:58.337Z,89.91
2017-07-24T09:11:59.293Z,88.85
2017-07-24T09:13:00.003Z,88.56
2017-07-24T09:14:00.670Z,89.14
2017-07-24T09:15:01.399Z,89.53
2017-07-24T09:16:02.121Z,90.00
2017-07-24T09:17:03.098Z,90.88
2017-07-24T09:18:03.812Z,91.36
2017-07-24T09:19:04.521Z,91.45
2017-07-24T09:20:05.240Z,92.13
2017-07-24T09:21:05.952Z,92.22
2017-07-24T09:22:06.907Z,91.93
2017-07-24T09:23:07.612Z,91.83
2017-07-24T09:24:08.319Z,92.32
2017-07-24T09:25:09.026Z,92.03
2017-07-24T09:26:09.736Z,91.60
2017-07-24T09:27:10.691Z,91.69
2017-07-24T09:28:11.394Z,91.02
2017-07-24T09:29:12.110Z,90.53
2017-07-24T09:30:12.822Z,89.76
2017-07-24T09:31:13.526Z,89.86
2017-07-24T09:32:14.478Z,90.63
2017-07-24T09:33:15.187Z,90.24
2017-07-24T09:34:15.904Z,89.28
2017-07-24T09:35:16.614Z,89.18
2017-07-24T09:36:17.325Z,88.60
2017-07-24T09:37:18.033Z,89.76
2017-07-24T09:38:18.737Z,90.05
2017-07-24T09:39:19.443Z,90.68
2017-07-24T09:40:20.152Z,90.30
2017-07-24T09:41:20.864Z,91.83
2017-07-24T09:42:21.819Z,91.45
2017-07-24T09:43:22.527Z,90.88
2017-07-24T09:44:23.231Z,89.53
2017-07-24T09:45:23.943Z,89.96
2017-07-24T09:46:24.654Z,89.77
2017-07-24T09:47:25.610Z,91.02
2017-07-24T09:48:26.317Z,92.08
2017-07-24T09:49:27.031Z,91.89
2017-07-24T09:50:27.738Z,90.83
2017-07-24T09:51:28.441Z,91.12
2017-07-24T09:52:29.398Z,91.41
2017-07-24T09:53:30.106Z,91.89
2017-07-24T09:54:30.812Z,92.18
2017-07-24T09:55:31.517Z,92.08
2017-07-24T09:56:32.229Z,92.03
2017-07-24T09:57:33.183Z,92.85
2017-07-24T09:58:33.898Z,92.80
2017-07-24T09:59:34.611Z,94.06
2017-07-24T10:00:35.315Z,93.48
2017-07-24T10:01:36.027Z,94.78
2017-07-24T10:02:36.987Z,94.10
2017-07-24T10:03:37.695Z,94.49
2017-07-24T10:04:38.400Z,94.25
2017-07-24T10:05:39.113Z,93.77
2017-07-24T10:06:39.820Z,92.52
2017-07-24T10:07:40.785Z,93.09
2017-07-24T10:08:41.488Z,92.71
2017-07-24T10:09:42.196Z,92.13
2017-07-24T10:10:42.898Z,92.22
2017-07-24T10:11:43.603Z,92.03
2017-07-24T10:12:44.560Z,92.42
2017-07-24T10:13:45.269Z,93.48
2017-07-24T10:14:45.976Z,94.01
2017-07-24T10:15:46.689Z,93.24
2017-07-24T10:16:47.399Z,93.29
2017-07-24T10:17:48.351Z,93.72
2017-07-24T10:18:49.062Z,94.20
2017-07-24T10:19:49.774Z,93.72
2017-07-24T10:20:50.479Z,92.76
2017-07-24T10:21:51.187Z,94.20
2017-07-24T10:22:52.143Z,94.20
2017-07-24T10:23:52.868Z,94.15
2017-07-24T10:24:53.572Z,94.20
2017-07-24T10:25:54.296Z,93.87
2017-07-24T10:26:55.011Z,93.91
2017-07-24T10:27:55.969Z,95.07
2017-07-24T10:28:56.686Z,94.34
2017-07-24T10:29:57.416Z,94.73
2017-07-24T10:30:58.122Z,95.07
2017-07-24T10:31:58.834Z,95.21
2017-07-24T10:32:59.788Z,95.31
2017-07-24T10:34:00.492Z,96.22
2017-07-24T10:35:01.195Z,96.32
2017-07-24T10:36:01.902Z,96.51
2017-07-24T10:37:02.611Z,96.89
2017-07-24T10:38:03.567Z,96.37
2017-07-24T10:39:04.281Z,95.02
2017-07-24T10:40:04.984Z,95.21
2017-07-24T10:41:05.685Z,95.74
2017-07-24T10:42:06.389Z,96.80
2017-07-24T10:43:07.345Z,96.51
2017-07-24T10:44:08.050Z,96.22
2017-07-24T10:45:08.757Z,96.70
2017-07-24T10:46:09.475Z,96.70
2017-07-24T10:47:10.183Z,97.28
2017-07-24T10:48:10.888Z,97.67
2017-07-24T10:49:11.612Z,96.70
2017-07-24T10:50:12.320Z,96.51
2017-07-24T10:51:13.021Z,96.08
2017-07-24T10:52:13.727Z,96.17
2017-07-24T10:53:14.684Z,96.32
2017-07-24T10:54:15.396Z,97.71
2017-07-24T10:55:16.101Z,96.66
2017-07-24T10:56:16.803Z,96.75
2017-07-24T10:57:17.524Z,96.42
2017-07-24T10:58:18.477Z,96.80
2017-07-24T10:59:19.190Z,96.56
2017-07-24T11:00:19.898Z,96.27
2017-07-24T11:01:20.602Z,96.56
2017-07-24T11:02:21.316Z,94.92
2017-07-24T11:03:22.271Z,95.40
2017-07-24T11:04:22.976Z,95.75
2017-07-24T11:05:23.680Z,96.61
2017-07-24T11:06:24.380Z,95.55
2017-07-24T11:07:25.084Z,96.56
2017-07-24T11:08:25.801Z,96.66
2017-07-24T11:09:26.506Z,96.75
2017-07-24T11:10:27.211Z,97.14
2017-07-24T11:11:27.922Z,96.75
2017-07-24T11:12:28.623Z,99.30
2017-07-24T11:13:29.577Z,99.78
2017-07-24T11:14:30.283Z,99.99
2017-07-24T11:15:30.998Z,99.99
2017-07-24T11:16:31.703Z,99.99
2017-07-24T11:17:32.410Z,99.99
2017-07-24T11:18:33.416Z,99.99
2017-07-24T11:19:34.119Z,99.99
2017-07-24T11:20:34.826Z,99.92
2017-07-24T11:21:35.536Z,99.29
2017-07-24T11:22:36.242Z,99.96
2017-07-24T11:23:36.954Z,97.66
2017-07-24T11:24:37.657Z,96.89
2017-07-24T11:25:38.363Z,96.80
2017-07-24T11:26:39.066Z,97.38
2017-07-24T11:27:39.774Z,98.86
2017-07-24T11:28:40.738Z,98.05
2017-07-24T11:29:41.445Z,98.53
2017-07-24T11:30:42.148Z,97.47
2017-07-24T11:31:42.851Z,97.38
2017-07-24T11:32:43.561Z,97.47
2017-07-24T11:33:44.511Z,97.66
2017-07-24T11:34:45.213Z,97.47
2017-07-24T11:35:45.919Z,96.51
2017-07-24T11:36:46.626Z,96.80
2017-07-24T11:37:47.333Z,96.70
2017-07-24T11:38:48.289Z,97.09
2017-07-24T11:39:48.999Z,97.09
2017-07-24T11:40:49.713Z,97.91
2017-07-24T11:41:50.424Z,96.80
2017-07-24T11:42:51.127Z,98.05
2017-07-24T11:43:52.080Z,96.61
2017-07-24T11:44:52.785Z,96.99
2017-07-24T11:45:53.491Z,97.66
2017-07-24T11:46:54.205Z,97.95
2017-07-24T11:47:54.910Z,96.89
2017-07-24T11:48:55.867Z,97.28
2017-07-24T11:49:56.569Z,95.75
2017-07-24T11:50:57.274Z,95.07
2017-07-24T11:51:57.977Z,95.84
2017-07-24T11:52:58.685Z,94.83
2017-07-24T11:53:59.640Z,93.54
2017-07-24T11:55:00.349Z,91.76
2017-07-24T11:56:01.062Z,91.81
2017-07-24T11:57:01.769Z,91.62
2017-07-24T11:58:02.488Z,91.96
2017-07-24T11:59:03.440Z,93.25
2017-07-24T12:00:04.145Z,92.43
2017-07-24T12:01:04.854Z,92.72
2017-07-24T12:02:05.556Z,91.96
2017-07-24T12:03:06.275Z,91.28
2017-07-24T12:04:06.979Z,90.99
2017-07-24T12:05:07.687Z,91.19
2017-07-24T12:06:08.388Z,91.57
2017-07-24T12:07:09.050Z,91.62
2017-07-24T12:08:09.799Z,91.57
2017-07-24T12:09:10.750Z,91.38
2017-07-24T12:10:11.460Z,91.57
2017-07-24T12:11:12.169Z,90.22
2017-07-24T12:12:12.875Z,91.38
2017-07-24T12:13:13.581Z,91.72
2017-07-24T12:14:14.538Z,91.52
2017-07-24T12:15:15.246Z,92.33
2017-07-24T12:16:15.949Z,90.70
2017-07-24T12:17:16.651Z,90.13
2017-07-24T12:18:17.354Z,90.75
2017-07-24T12:19:18.058Z,89.94
2017-07-24T12:20:18.764Z,89.75
2017-07-24T12:21:19.469Z,89.79
2017-07-24T12:22:20.173Z,89.79
2017-07-24T12:23:20.877Z,90.28
2017-07-24T12:24:21.593Z,91.14
2017-07-24T12:25:22.298Z,92.10
2017-07-24T12:26:23.005Z,91.91
2017-07-24T12:27:23.712Z,91.72
2017-07-24T12:28:24.421Z,91.86
2017-07-24T12:29:25.376Z,91.38
2017-07-24T12:30:26.084Z,90.66
2017-07-24T12:31:26.796Z,89.31
2017-07-24T12:32:27.501Z,88.83
2017-07-24T12:33:28.204Z,90.17
2017-07-24T12:34:29.163Z,89.02
2017-07-24T12:35:29.867Z,89.02
2017-07-24T12:36:30.571Z,89.07
2017-07-24T12:37:31.277Z,88.10
2017-07-24T12:38:31.984Z,87.29
2017-07-24T12:39:32.690Z,89.22
2017-07-24T12:40:33.398Z,89.31
2017-07-24T12:41:34.105Z,88.83
2017-07-24T12:42:34.813Z,88.06
2017-07-24T12:43:35.528Z,86.43
2017-07-24T12:44:36.482Z,86.76
2017-07-24T12:45:37.186Z,86.95
2017-07-24T12:46:37.893Z,87.43
2017-07-24T12:47:38.605Z,86.95
2017-07-24T12:48:39.312Z,87.15
2017-07-24T12:49:40.269Z,87.05
2017-07-24T12:50:40.975Z,86.57
2017-07-24T12:51:41.686Z,86.38
2017-07-24T12:52:42.396Z,85.75
2017-07-24T12:53:43.101Z,84.59
2017-07-24T12:54:44.053Z,83.97
2017-07-24T12:55:44.761Z,84.11
2017-07-24T12:56:45.475Z,83.59
2017-07-24T12:57:46.190Z,84.36
2017-07-24T12:58:46.896Z,83.97
2017-07-24T12:59:47.601Z,82.63
2017-07-24T13:00:48.303Z,83.11
2017-07-24T13:01:49.011Z,83.01